Time;durP1;ratioP1;P1;durP2;ratioP2;P2;SDS_P1;SDS_P2;PMS_P1;PMS_P2;Temp;Humidity;BMP_temperature;BMP_pressure;BME280_temperature;BME280_humidity;BME280_pressure;Samples;Min_cycle;Max_cycle;Signal;HPM_P1;HPM_P2
2022/08/28 00:01:28;;;;;;;19.20;17.38;;;19.20;99.90;;;;;;5022860;28;20782;-82
2022/08/28 00:03:54;;;;;;;18.37;16.57;;;19.10;99.90;;;;;;5029085;28;20281;-82
2022/08/28 00:06:20;;;;;;;21.40;17.37;;;19.30;99.90;;;;;;5027738;28;20807;-82
2022/08/28 00:08:46;;;;;;;18.08;16.27;;;20.60;99.90;;;;;;5028918;28;20186;-82
2022/08/28 00:11:11;;;;;;;17.67;15.83;;;19.30;99.90;;;;;;5025420;28;20197;-82
2022/08/28 00:13:39;;;;;;;18.73;16.93;;;18.80;99.90;;;;;;5029549;28;20198;-82
2022/08/28 00:16:05;;;;;;;18.95;17.20;;;19.40;99.90;;;;;;5018450;28;20178;-81
2022/08/28 00:18:30;;;;;;;19.70;17.70;;;19.00;99.90;;;;;;5026477;28;20182;-82
2022/08/28 00:20:57;;;;;;;19.23;17.40;;;19.60;99.90;;;;;;5026863;28;20451;-82
2022/08/28 00:23:24;;;;;;;19.58;17.77;;;19.20;99.90;;;;;;5029190;28;20193;-82
2022/08/28 00:25:50;;;;;;;18.38;16.05;;;19.40;99.90;;;;;;5019039;28;20273;-82
2022/08/28 00:28:16;;;;;;;17.92;16.15;;;18.80;99.90;;;;;;5027603;28;20181;-82
2022/08/28 00:30:49;;;;;;;17.00;15.13;;;19.60;99.90;;;;;;5026648;28;20190;-82
2022/08/28 00:33:31;;;;;;;18.20;16.40;;;19.50;99.90;;;;;;5032092;28;20201;-82
2022/08/28 00:35:57;;;;;;;19.02;17.30;;;19.20;99.90;;;;;;5032776;28;20209;-82
2022/08/28 00:38:25;;;;;;;19.70;17.70;;;19.50;99.90;;;;;;5029919;28;20178;-82
2022/08/28 00:40:52;;;;;;;17.80;16.20;;;19.20;99.90;;;;;;5030401;28;20666;-82
2022/08/28 00:43:32;;;;;;;18.20;16.60;;;19.50;99.90;;;;;;5033241;28;20198;-82
2022/08/28 00:45:58;;;;;;;18.45;16.65;;;19.50;99.90;;;;;;5029826;28;20182;-82
2022/08/28 00:48:23;;;;;;;17.87;16.17;;;19.60;99.90;;;;;;5026851;28;20217;-82
2022/08/28 00:53:33;;;;;;;19.25;17.20;;;19.50;99.90;;;;;;5032386;28;20248;-82
2022/08/28 00:56:04;;;;;;;18.87;17.10;;;19.10;99.90;;;;;;5031439;28;20213;-82
2022/08/28 00:58:30;;;;;;;18.20;16.48;;;19.00;99.90;;;;;;5029945;28;20178;-81
2022/08/28 01:00:55;;;;;;;19.33;17.58;;;19.50;99.90;;;;;;5029942;28;20198;-82
2022/08/28 01:03:21;;;;;;;19.93;16.87;;;19.20;99.90;;;;;;5027093;28;20198;-81
2022/08/28 01:05:48;;;;;;;19.57;17.70;;;19.20;99.90;;;;;;5032085;28;20193;-82
2022/08/28 01:08:14;;;;;;;18.23;16.48;;;19.40;99.90;;;;;;5028533;28;20274;-82
2022/08/28 01:10:43;;;;;;;19.45;16.95;;;19.50;99.90;;;;;;5023125;28;20739;-82
2022/08/28 01:13:09;;;;;;;18.77;17.10;;;19.60;99.90;;;;;;5025703;28;20205;-82
2022/08/28 01:15:36;;;;;;;18.60;16.80;;;19.60;99.90;;;;;;5031344;28;20229;-82
2022/08/28 01:18:07;;;;;;;19.15;17.45;;;19.50;99.90;;;;;;5028985;28;20519;-82
2022/08/28 01:20:35;;;;;;;17.95;16.27;;;19.60;99.90;;;;;;5031389;28;20178;-82
2022/08/28 01:23:33;;;;;;;17.73;16.13;;;19.60;99.90;;;;;;5024436;28;20210;-82
2022/08/28 01:25:59;;;;;;;17.33;15.63;;;19.30;99.90;;;;;;5032250;28;20212;-82
2022/08/28 01:28:24;;;;;;;19.17;17.38;;;19.80;99.90;;;;;;5032210;28;20175;-82
2022/08/28 01:30:50;;;;;;;18.77;16.97;;;19.20;99.90;;;;;;5032397;28;20344;-82
2022/08/28 01:33:18;;;;;;;18.53;16.83;;;19.60;99.90;;;;;;5030778;28;20183;-82
2022/08/28 01:35:46;;;;;;;19.35;17.35;;;19.40;99.90;;;;;;5032165;28;20312;-82
2022/08/28 01:38:12;;;;;;;18.60;16.80;;;19.60;99.90;;;;;;5028564;28;20190;-82
2022/08/28 01:40:41;;;;;;;17.98;16.17;;;19.60;99.90;;;;;;5021704;28;20225;-83
2022/08/28 01:43:11;;;;;;;19.60;17.70;;;18.70;99.90;;;;;;5032223;28;20190;-82
2022/08/28 01:45:38;;;;;;;17.75;16.05;;;19.10;99.90;;;;;;5030746;28;20185;-82
2022/08/28 01:48:07;;;;;;;17.98;16.15;;;19.20;99.90;;;;;;5028665;28;20190;-82
2022/08/28 01:50:33;;;;;;;16.92;15.32;;;19.40;99.90;;;;;;5031783;28;20188;-82
2022/08/28 01:53:00;;;;;;;17.75;16.00;;;19.40;99.90;;;;;;5030668;28;20245;-82
2022/08/28 01:55:26;;;;;;;15.88;14.38;;;19.20;99.90;;;;;;5031063;28;20280;-82
2022/08/28 01:57:53;;;;;;;17.17;14.90;;;19.30;99.90;;;;;;5017953;28;20609;-82
2022/08/28 02:00:20;;;;;;;17.13;15.48;;;19.40;99.90;;;;;;5028485;28;20185;-81
2022/08/28 02:02:47;;;;;;;18.15;16.30;;;19.00;99.90;;;;;;5029096;28;20593;-81
2022/08/28 02:05:13;;;;;;;18.10;16.50;;;19.60;99.90;;;;;;5030730;28;20178;-82
2022/08/28 02:07:39;;;;;;;18.13;15.35;;;19.40;99.90;;;;;;5026860;28;20186;-82
2022/08/28 02:10:07;;;;;;;16.63;15.03;;;19.40;99.90;;;;;;5030115;28;20236;-82
2022/08/28 02:12:32;;;;;;;17.65;15.95;;;19.20;99.90;;;;;;5027913;28;20264;-82
2022/08/28 02:14:58;;;;;;;17.00;15.40;;;19.70;99.90;;;;;;5031404;28;20241;-82
2022/08/28 02:17:23;;;;;;;16.00;14.60;;;19.60;99.90;;;;;;5025388;28;20533;-82
2022/08/28 02:19:50;;;;;;;18.47;16.77;;;19.70;99.90;;;;;;5025564;28;20236;-82
2022/08/28 02:22:16;;;;;;;16.88;15.38;;;19.10;99.90;;;;;;5023026;28;20212;-82
2022/08/28 02:24:42;;;;;;;17.17;15.48;;;19.60;99.90;;;;;;5029654;28;20870;-81
2022/08/28 02:27:07;;;;;;;18.17;16.57;;;19.50;99.90;;;;;;5029191;28;20182;-81
2022/08/28 02:29:33;;;;;;;16.80;15.20;;;19.60;99.90;;;;;;5031173;28;20202;-82
2022/08/28 02:31:59;;;;;;;16.80;15.30;;;19.50;99.90;;;;;;5029235;28;20305;-82
2022/08/28 02:34:24;;;;;;;17.50;15.80;;;19.60;99.90;;;;;;5031580;28;20210;-82
2022/08/28 02:36:50;;;;;;;17.57;15.90;;;19.60;99.90;;;;;;5028174;28;20212;-82
2022/08/28 02:39:15;;;;;;;19.37;17.40;;;19.50;99.90;;;;;;5029189;28;20225;-82
2022/08/28 02:41:41;;;;;;;18.90;17.10;;;20.50;99.90;;;;;;5028554;28;20625;-82
2022/08/28 02:44:06;;;;;;;19.63;17.90;;;19.50;99.90;;;;;;5030837;28;20190;-82
2022/08/28 02:46:32;;;;;;;18.60;16.83;;;19.60;99.90;;;;;;5030511;28;20190;-81
2022/08/28 02:48:58;;;;;;;19.63;17.73;;;19.50;99.90;;;;;;5025376;28;20216;-82
2022/08/28 02:51:23;;;;;;;19.63;17.57;;;19.40;99.90;;;;;;5030399;28;20210;-82
2022/08/28 02:53:50;;;;;;;18.03;16.23;;;19.60;99.90;;;;;;5021350;28;20504;-82
2022/08/28 02:56:16;;;;;;;18.58;16.77;;;20.00;99.90;;;;;;5030058;28;20261;-81
2022/08/28 02:58:42;;;;;;;22.27;18.53;;;19.80;99.90;;;;;;5022847;28;20838;-81
2022/08/28 03:01:09;;;;;;;19.27;17.37;;;21.00;99.90;;;;;;5024527;28;20170;-81
2022/08/28 03:03:35;;;;;;;18.95;17.05;;;19.90;99.90;;;;;;5030665;28;20182;-81
2022/08/28 03:06:02;;;;;;;20.07;17.77;;;20.60;99.90;;;;;;5029258;28;20244;-82
2022/08/28 03:08:29;;;;;;;19.75;17.77;;;20.10;99.90;;;;;;5024395;28;20441;-81
2022/08/28 03:10:54;;;;;;;19.48;17.58;;;20.20;99.90;;;;;;5027562;28;20191;-82
2022/08/28 03:13:20;;;;;;;20.30;18.27;;;20.30;99.90;;;;;;5030196;28;20186;-81
2022/08/28 03:15:46;;;;;;;19.13;16.77;;;20.10;99.90;;;;;;5029354;28;20170;-82
2022/08/28 03:18:13;;;;;;;20.55;17.63;;;20.10;99.90;;;;;;5022332;28;20231;-81
2022/08/28 03:20:39;;;;;;;20.88;18.83;;;20.20;99.90;;;;;;5029588;28;20535;-81
2022/08/28 03:25:50;;;;;;;21.17;18.15;;;20.20;99.90;;;;;;5028715;28;20550;-82
2022/08/28 03:28:16;;;;;;;22.58;20.20;;;20.10;99.90;;;;;;5029597;28;20181;-81
2022/08/28 03:30:41;;;;;;;19.57;17.57;;;20.20;99.90;;;;;;5028832;28;20190;-81
2022/08/28 03:33:07;;;;;;;22.87;18.87;;;20.40;99.90;;;;;;5029159;28;20494;-81
2022/08/28 03:35:33;;;;;;;17.73;15.83;;;20.40;99.90;;;;;;5030002;28;20698;-81
2022/08/28 03:37:59;;;;;;;17.33;15.63;;;19.70;99.90;;;;;;5027701;28;20983;-81
2022/08/28 03:40:24;;;;;;;16.67;15.13;;;21.30;99.90;;;;;;5028215;28;20186;-82
2022/08/28 03:42:50;;;;;;;19.13;17.27;;;20.30;99.90;;;;;;5030114;28;20195;-82
2022/08/28 03:45:16;;;;;;;19.20;17.30;;;20.40;99.90;;;;;;5028694;28;20190;-82
2022/08/28 03:47:41;;;;;;;21.43;19.00;;;20.40;99.90;;;;;;5024801;28;20182;-81
2022/08/28 03:50:10;;;;;;;21.70;19.50;;;20.10;99.90;;;;;;5030169;28;20186;-82
2022/08/28 03:52:39;;;;;;;21.90;19.60;;;19.80;99.90;;;;;;5029114;28;20465;-82
2022/08/28 03:55:08;;;;;;;21.77;19.58;;;19.50;99.90;;;;;;5026664;28;20201;-79
2022/08/28 03:57:34;;;;;;;20.27;18.20;;;19.70;99.90;;;;;;5022577;28;20184;-80
2022/08/28 04:00:00;;;;;;;24.20;21.00;;;20.00;99.90;;;;;;5024016;28;20178;-79
2022/08/28 04:02:26;;;;;;;19.58;17.23;;;20.00;99.90;;;;;;5027622;28;20499;-80
2022/08/28 04:04:52;;;;;;;20.03;17.93;;;19.80;99.90;;;;;;5028514;28;20178;-80
2022/08/28 04:07:18;;;;;;;21.73;18.87;;;20.30;99.90;;;;;;5029539;28;20204;-81
2022/08/28 04:09:44;;;;;;;20.75;18.63;;;20.10;99.90;;;;;;5028234;28;20236;-80
2022/08/28 04:12:10;;;;;;;20.70;18.50;;;20.40;99.90;;;;;;5027057;28;20617;-80
2022/08/28 04:14:36;;;;;;;20.88;18.77;;;20.80;99.90;;;;;;5028922;28;20456;-79
2022/08/28 04:17:02;;;;;;;20.17;18.23;;;20.10;99.90;;;;;;5024601;28;20208;-80
2022/08/28 04:19:29;;;;;;;20.85;18.75;;;21.00;99.90;;;;;;5027367;28;20457;-80
2022/08/28 04:21:54;;;;;;;19.05;17.15;;;20.00;99.90;;;;;;5028109;28;20194;-80
2022/08/28 04:24:20;;;;;;;20.63;18.20;;;20.40;99.90;;;;;;5027129;28;20197;-80
2022/08/28 04:26:45;;;;;;;19.23;17.33;;;20.40;99.90;;;;;;5027764;28;20186;-80
2022/08/28 04:29:11;;;;;;;19.77;17.70;;;20.30;99.90;;;;;;5029283;28;20254;-80
2022/08/28 04:31:36;;;;;;;21.97;17.90;;;20.50;99.90;;;;;;5025813;28;20254;-80
2022/08/28 04:34:05;;;;;;;19.37;17.40;;;20.60;99.90;;;;;;5027985;28;20295;-80
2022/08/28 04:36:34;;;;;;;21.00;17.38;;;20.50;99.90;;;;;;5026413;28;20190;-80
2022/08/28 04:39:01;;;;;;;20.13;17.55;;;20.20;99.90;;;;;;5022751;28;20182;-80
2022/08/28 04:41:28;;;;;;;20.42;17.70;;;20.50;99.90;;;;;;5027384;28;20721;-80
2022/08/28 04:43:56;;;;;;;19.15;17.35;;;20.70;99.90;;;;;;5027981;28;20192;-80
2022/08/28 04:46:22;;;;;;;18.35;16.50;;;20.50;99.90;;;;;;5026948;28;20194;-80
2022/08/28 04:48:48;;;;;;;19.75;17.25;;;20.40;99.90;;;;;;5027155;28;20601;-79
2022/08/28 04:51:13;;;;;;;19.67;17.67;;;20.10;99.90;;;;;;5027050;28;20215;-80
2022/08/28 04:53:40;;;;;;;18.53;16.63;;;20.80;99.90;;;;;;5020205;28;20187;-80
2022/08/28 04:56:09;;;;;;;20.30;18.23;;;20.70;99.90;;;;;;5027511;28;20436;-80
2022/08/28 04:58:35;;;;;;;18.58;16.63;;;20.70;99.90;;;;;;5028224;28;20222;-80
2022/08/28 05:01:09;;;;;;;17.42;15.63;;;20.20;99.90;;;;;;5020233;28;20178;-80
2022/08/28 05:03:35;;;;;;;18.88;16.92;;;20.30;99.90;;;;;;5027507;28;20217;-80
2022/08/28 05:06:02;;;;;;;19.67;17.73;;;20.00;99.90;;;;;;5020812;28;20182;-80
2022/08/28 05:08:28;;;;;;;18.95;17.05;;;20.20;99.90;;;;;;5025371;28;20171;-80
2022/08/28 05:10:54;;;;;;;19.30;16.80;;;20.00;99.90;;;;;;5025829;28;20183;-80
2022/08/28 05:13:20;;;;;;;16.88;15.30;;;20.30;99.90;;;;;;5026249;28;20448;-80
2022/08/28 05:15:49;;;;;;;19.23;14.48;;;20.20;99.90;;;;;;5026774;28;20550;-81
2022/08/28 05:18:17;;;;;;;16.30;14.70;;;20.30;99.90;;;;;;5027195;28;20703;-82
2022/08/28 05:20:46;;;;;;;15.65;14.07;;;20.60;99.90;;;;;;5025724;28;20281;-82
2022/08/28 05:23:12;;;;;;;15.98;14.27;;;21.20;99.90;;;;;;5029885;28;20567;-81
2022/08/28 05:25:40;;;;;;;16.63;14.90;;;20.70;99.90;;;;;;5028135;28;20666;-80
2022/08/28 05:28:08;;;;;;;17.40;15.70;;;20.60;99.90;;;;;;5027940;28;20182;-80
2022/08/28 05:30:34;;;;;;;20.23;18.33;;;20.80;99.90;;;;;;5030125;28;20182;-80
2022/08/28 05:32:59;;;;;;;16.77;15.03;;;21.70;99.90;;;;;;5028208;28;20210;-80
2022/08/28 05:35:26;;;;;;;20.93;16.87;;;20.40;99.90;;;;;;5032385;28;20798;-81
2022/08/28 05:37:51;;;;;;;16.88;15.25;;;20.20;99.90;;;;;;5026751;28;20651;-81
2022/08/28 05:40:20;;;;;;;19.10;17.20;;;20.80;99.90;;;;;;5030251;28;20205;-80
2022/08/28 05:42:50;;;;;;;17.38;15.63;;;20.40;99.90;;;;;;5030535;28;20613;-80
2022/08/28 05:45:16;;;;;;;16.95;15.25;;;20.50;99.90;;;;;;5029504;28;20880;-81
2022/08/28 05:47:42;;;;;;;17.13;15.35;;;20.50;99.90;;;;;;5026441;28;20720;-81
2022/08/28 05:50:12;;;;;;;22.33;17.90;;;21.00;99.90;;;;;;5030166;28;20186;-81
2022/08/28 05:52:38;;;;;;;20.02;16.77;;;20.40;99.90;;;;;;5024290;28;20198;-81
2022/08/28 05:55:06;;;;;;;16.27;14.70;;;20.60;99.90;;;;;;5027907;28;20209;-81
2022/08/28 05:57:32;;;;;;;18.17;15.45;;;20.40;99.90;;;;;;5025245;28;20174;-81
2022/08/28 05:59:57;;;;;;;17.80;16.10;;;20.70;99.90;;;;;;5029649;28;20174;-81
2022/08/28 06:02:23;;;;;;;17.53;15.73;;;20.50;99.90;;;;;;5026249;28;20674;-81
2022/08/28 06:04:49;;;;;;;18.20;15.30;;;21.00;99.90;;;;;;5026583;28;20174;-81
2022/08/28 06:07:14;;;;;;;16.60;15.00;;;20.60;99.90;;;;;;5029555;28;20712;-81
2022/08/28 06:09:41;;;;;;;17.80;15.93;;;20.90;99.90;;;;;;5027496;28;20647;-81
2022/08/28 06:12:07;;;;;;;18.05;16.25;;;21.10;99.90;;;;;;5027038;28;20228;-81
2022/08/28 06:14:33;;;;;;;18.83;15.07;;;20.50;99.90;;;;;;5028406;28;20581;-82
2022/08/28 06:17:00;;;;;;;17.02;15.23;;;20.90;99.90;;;;;;5026331;28;20185;-81
2022/08/28 06:19:28;;;;;;;16.30;14.70;;;20.50;99.90;;;;;;5031255;28;20174;-81
2022/08/28 06:21:58;;;;;;;17.25;15.40;;;20.90;99.90;;;;;;5028497;28;20198;-81
2022/08/28 06:24:25;;;;;;;17.65;15.95;;;20.50;99.90;;;;;;5021929;28;20182;-81
2022/08/28 06:26:51;;;;;;;17.27;15.10;;;20.30;99.90;;;;;;5025393;28;20269;-81
2022/08/28 06:29:18;;;;;;;16.25;14.65;;;20.40;99.90;;;;;;5023632;28;20260;-81
2022/08/28 06:31:44;;;;;;;17.75;15.23;;;20.80;99.90;;;;;;5028981;28;20233;-81
2022/08/28 06:34:11;;;;;;;14.73;13.33;;;20.60;99.90;;;;;;5029215;28;20268;-81
2022/08/28 06:36:41;;;;;;;14.50;13.10;;;20.70;99.90;;;;;;5019251;28;20453;-81
2022/08/28 06:39:09;;;;;;;15.75;13.38;;;20.70;99.90;;;;;;5026506;28;20182;-81
2022/08/28 06:41:39;;;;;;;15.60;14.00;;;20.40;99.90;;;;;;5029721;28;20202;-81
2022/08/28 06:44:06;;;;;;;15.82;14.15;;;21.20;99.90;;;;;;5028633;28;20186;-81
2022/08/28 06:46:33;;;;;;;14.45;13.02;;;20.60;99.90;;;;;;5029542;28;20228;-81
2022/08/28 06:49:01;;;;;;;14.20;12.85;;;20.80;99.90;;;;;;5025976;28;20654;-81
2022/08/28 06:51:26;;;;;;;13.95;12.57;;;20.70;99.90;;;;;;5027447;28;20686;-82
2022/08/28 06:53:52;;;;;;;14.73;13.10;;;21.10;99.90;;;;;;5027346;28;20206;-79
2022/08/28 06:56:19;;;;;;;13.17;11.77;;;21.00;99.90;;;;;;5028872;28;20189;-80
2022/08/28 06:58:46;;;;;;;13.90;12.60;;;21.30;99.90;;;;;;5028363;28;20178;-80
2022/08/28 07:01:21;;;;;;;14.25;12.80;;;20.90;99.90;;;;;;5024846;28;20198;-80
2022/08/28 07:03:47;;;;;;;14.80;13.32;;;21.30;99.90;;;;;;5025547;28;20188;-80
2022/08/28 07:06:14;;;;;;;16.65;13.65;;;21.30;99.90;;;;;;5029952;28;20186;-79
2022/08/28 07:08:42;;;;;;;14.30;12.82;;;20.80;99.90;;;;;;5025703;28;20205;-80
2022/08/28 07:11:17;;;;;;;14.00;12.80;;;21.00;99.90;;;;;;5025745;28;20186;-80
2022/08/28 07:13:43;;;;;;;14.15;12.95;;;21.00;99.90;;;;;;5026396;28;20331;-80
2022/08/28 07:16:11;;;;;;;13.55;12.35;;;21.20;99.90;;;;;;5026272;28;20684;-80
2022/08/28 07:18:37;;;;;;;12.65;11.07;;;21.30;99.90;;;;;;5026206;28;20182;-80
2022/08/28 07:21:03;;;;;;;13.83;12.37;;;21.50;99.90;;;;;;5025682;28;20178;-80
2022/08/28 07:23:30;;;;;;;13.80;12.40;;;21.20;99.90;;;;;;5021683;28;20497;-80
2022/08/28 07:25:56;;;;;;;16.40;14.25;;;21.30;99.90;;;;;;5026834;28;20214;-80
2022/08/28 07:28:22;;;;;;;14.73;13.23;;;21.30;99.90;;;;;;5024754;28;20217;-80
2022/08/28 07:30:59;;;;;;;13.27;12.07;;;20.80;99.90;;;;;;5028088;28;20205;-80
2022/08/28 07:33:27;;;;;;;13.43;12.23;;;21.10;99.90;;;;;;5025723;28;20179;-80
2022/08/28 07:35:53;;;;;;;14.27;12.77;;;21.20;99.90;;;;;;5027394;28;20186;-80
2022/08/28 07:38:19;;;;;;;14.03;12.70;;;21.90;99.90;;;;;;5022118;28;20224;-80
2022/08/28 07:40:44;;;;;;;14.93;13.38;;;22.30;99.90;;;;;;5024979;28;20449;-80
2022/08/28 07:46:05;;;;;;;13.82;12.13;;;21.70;99.90;;;;;;5028276;28;20603;-80
2022/08/28 07:48:35;;;;;;;13.40;12.05;;;21.50;99.90;;;;;;5025866;28;20194;-80
2022/08/28 07:51:02;;;;;;;13.65;12.32;;;21.30;99.90;;;;;;5028145;28;20179;-80
2022/08/28 07:53:28;;;;;;;13.45;12.10;;;21.60;99.90;;;;;;5024123;28;20262;-80
2022/08/28 07:55:53;;;;;;;14.75;13.00;;;21.60;99.90;;;;;;5029571;28;20214;-80
2022/08/28 07:58:19;;;;;;;13.67;12.43;;;21.50;99.90;;;;;;5025761;28;20217;-79
2022/08/28 08:00:45;;;;;;;15.10;13.50;;;21.80;99.90;;;;;;5027359;28;20201;-80
2022/08/28 08:03:12;;;;;;;13.87;12.57;;;22.20;99.90;;;;;;5027325;28;20210;-80
2022/08/28 08:05:37;;;;;;;12.15;11.02;;;22.10;99.90;;;;;;5029207;28;20548;-82
2022/08/28 08:08:03;;;;;;;9.23;8.43;;;22.20;99.90;;;;;;5022832;28;20186;-85
2022/08/28 08:10:28;;;;;;;10.40;9.50;;;21.80;99.90;;;;;;5028145;28;20262;-86
2022/08/28 08:12:54;;;;;;;13.77;12.10;;;22.00;99.90;;;;;;5029775;28;20202;-88
2022/08/28 08:15:19;;;;;;;14.00;12.60;;;22.00;99.90;;;;;;5033380;28;20205;-89
2022/08/28 08:17:45;;;;;;;13.43;11.00;;;22.30;99.90;;;;;;5030203;28;20182;-82
2022/08/28 08:20:11;;;;;;;11.97;10.83;;;22.10;99.90;;;;;;5034352;28;20178;-84
2022/08/28 08:22:36;;;;;;;10.77;9.73;;;22.40;99.90;;;;;;5025148;28;20273;-85
2022/08/28 08:25:03;;;;;;;14.07;12.70;;;22.40;99.90;;;;;;5026968;28;20190;-87
2022/08/28 08:27:30;;;;;;;13.55;10.88;;;22.30;99.90;;;;;;5023753;28;20643;-87
2022/08/28 08:29:56;;;;;;;11.30;10.18;;;22.50;99.90;;;;;;5030127;28;20205;-85
2022/08/28 08:32:22;;;;;;;12.90;11.70;;;23.20;99.90;;;;;;5026600;28;20198;-83
2022/08/28 08:34:52;;;;;;;13.70;12.50;;;22.80;99.90;;;;;;5025979;28;20205;-82
2022/08/28 08:37:17;;;;;;;12.88;11.68;;;22.80;99.90;;;;;;5035192;28;20181;-83
2022/08/28 08:39:43;;;;;;;14.40;12.97;;;22.90;99.90;;;;;;5028209;28;20261;-84
2022/08/28 08:42:30;;;;;;;13.00;11.80;;;22.70;99.90;;;;;;5026427;28;20217;-85
2022/08/28 08:44:59;;;;;;;13.65;12.25;;;22.80;99.90;;;;;;5015315;28;20244;-80
2022/08/28 08:47:57;;;;;;;13.10;11.90;;;22.90;99.90;;;;;;5021325;28;20194;-80
2022/08/28 08:50:34;;;;;;;13.30;12.10;;;22.70;99.90;;;;;;4981993;28;20531;-78
2022/08/28 08:53:25;;;;;;;13.20;12.00;;;22.80;99.90;;;;;;5026298;28;20828;-78
2022/08/28 08:55:53;;;;;;;14.25;12.75;;;22.70;99.90;;;;;;5030305;28;20255;-81
2022/08/28 08:58:39;;;;;;;12.30;11.10;;;22.70;99.90;;;;;;5044112;28;20290;-80
2022/08/28 09:01:34;;;;;;;14.13;12.85;;;22.90;99.90;;;;;;5027348;28;20717;-86
2022/08/28 09:04:03;;;;;;;15.00;11.83;;;22.90;99.90;;;;;;5035763;28;20189;-88
2022/08/28 09:06:49;;;;;;;13.90;12.57;;;22.70;99.90;;;;;;5025360;28;20432;-85
2022/08/28 09:09:36;;;;;;;14.25;12.95;;;23.20;99.90;;;;;;5024243;28;20785;-84
2022/08/28 09:12:05;;;;;;;12.70;11.57;;;22.90;99.90;;;;;;5024070;28;20220;-83
2022/08/28 09:14:42;;;;;;;12.60;11.20;;;23.40;99.90;;;;;;5036515;28;20240;-84
2022/08/28 09:17:10;;;;;;;13.70;12.17;;;23.80;99.90;;;;;;5025654;28;20974;-84
2022/08/28 09:19:36;;;;;;;12.33;11.23;;;24.50;99.90;;;;;;5034097;28;20437;-83
2022/08/28 09:22:02;;;;;;;12.93;11.53;;;25.10;99.90;;;;;;5030252;28;20483;-82
2022/08/28 09:24:35;;;;;;;13.73;12.27;;;24.90;99.90;;;;;;5014532;28;20591;-84
2022/08/28 09:27:37;;;;;;;11.57;10.57;;;24.60;99.90;;;;;;5029184;28;21001;-84
2022/08/28 09:30:06;;;;;;;11.43;10.40;;;24.30;99.90;;;;;;5000897;28;20540;-86
2022/08/28 09:32:33;;;;;;;11.13;10.23;;;24.90;99.90;;;;;;5028216;28;20477;-79
2022/08/28 09:35:01;;;;;;;12.07;10.97;;;25.20;99.90;;;;;;5026872;28;20827;-79
2022/08/28 09:37:31;;;;;;;12.03;10.07;;;24.90;99.90;;;;;;5028394;28;20473;-79
2022/08/28 09:43:27;;;;;;;10.87;9.97;;;25.60;99.90;;;;;;5031202;28;20512;-81
2022/08/28 09:46:03;;;;;;;11.13;10.13;;;26.10;98.90;;;;;;5026198;28;20444;-81
2022/08/28 09:48:35;;;;;;;10.37;9.33;;;26.60;98.10;;;;;;5031866;28;20445;-81
2022/08/28 09:51:02;;;;;;;11.33;10.23;;;26.10;97.80;;;;;;5026492;28;20452;-78
2022/08/28 09:53:29;;;;;;;11.03;9.93;;;25.90;97.90;;;;;;5018298;28;20539;-79
2022/08/28 09:56:19;;;;;;;10.87;9.97;;;26.30;98.00;;;;;;5023854;28;20471;-79
2022/08/28 09:58:48;;;;;;;9.73;8.93;;;25.90;97.40;;;;;;5023455;28;20476;-79
2022/08/28 10:01:13;;;;;;;12.07;11.07;;;26.90;97.60;;;;;;5029102;28;20474;-79
2022/08/28 10:04:28;;;;;;;10.13;9.23;;;27.30;98.20;;;;;;5030192;28;20443;-79
2022/08/28 10:07:03;;;;;;;11.20;10.17;;;24.70;97.70;;;;;;4986458;28;20239;-79
2022/08/28 10:09:53;;;;;;;10.70;9.60;;;25.30;98.60;;;;;;4987210;28;20434;-79
2022/08/28 10:12:43;;;;;;;10.00;9.00;;;25.30;98.40;;;;;;5015607;28;20466;-79
2022/08/28 10:16:02;;;;;;;10.13;9.23;;;25.20;98.50;;;;;;5023184;28;20445;-79
2022/08/28 10:18:30;;;;;;;9.50;8.70;;;25.10;98.80;;;;;;4977282;28;20518;-79
2022/08/28 10:21:24;;;;;;;10.30;9.50;;;25.10;99.10;;;;;;5027313;28;20484;-79
2022/08/28 10:24:23;;;;;;;9.57;8.87;;;24.90;99.00;;;;;;5024331;28;20428;-78
2022/08/28 10:27:26;;;;;;;11.13;9.93;;;25.00;99.30;;;;;;5028349;28;20478;-79
2022/08/28 10:30:03;;;;;;;11.00;9.90;;;24.90;99.90;;;;;;5028572;28;20432;-79
2022/08/28 10:33:06;;;;;;;11.70;10.30;;;25.00;99.80;;;;;;5024634;28;20460;-79
2022/08/28 10:35:37;;;;;;;11.30;10.40;;;24.90;99.70;;;;;;5030159;28;21241;-79
2022/08/28 10:38:16;;;;;;;10.07;9.17;;;24.70;99.80;;;;;;5017875;28;20445;-78
2022/08/28 10:41:02;;;;;;;10.83;9.83;;;24.80;99.90;;;;;;5030436;28;20443;-79
2022/08/28 10:43:46;;;;;;;9.80;8.80;;;24.90;99.90;;;;;;5030662;28;20432;-79
2022/08/28 10:46:35;;;;;;;10.80;9.80;;;25.20;99.00;;;;;;5028459;28;20457;-78
2022/08/28 10:49:09;;;;;;;10.60;9.60;;;25.50;99.10;;;;;;5028522;28;20469;-79
2022/08/28 10:51:47;;;;;;;10.57;9.00;;;25.00;98.90;;;;;;5025579;28;20540;-79
2022/08/28 10:54:36;;;;;;;9.00;8.20;;;25.30;99.20;;;;;;5027276;28;20548;-79
2022/08/28 10:57:23;;;;;;;9.23;8.43;;;25.80;97.50;;;;;;5026516;28;20975;-79
2022/08/28 10:59:51;;;;;;;9.07;8.27;;;25.70;97.20;;;;;;5029105;28;21228;-78
2022/08/28 11:02:22;;;;;;;9.40;7.80;;;25.80;96.50;;;;;;5025273;28;20480;-79
2022/08/28 11:04:48;;;;;;;9.00;8.30;;;26.20;96.70;;;;;;5026960;28;20502;-79
2022/08/28 11:07:23;;;;;;;9.67;8.67;;;26.30;96.40;;;;;;5028562;28;20430;-80
2022/08/28 11:09:49;;;;;;;9.33;8.53;;;26.70;95.30;;;;;;5027185;28;20518;-79
2022/08/28 11:12:18;;;;;;;9.27;8.30;;;27.10;94.10;;;;;;5027823;28;20804;-78
2022/08/28 11:14:46;;;;;;;8.43;7.73;;;27.80;93.30;;;;;;5026713;28;20244;-78
2022/08/28 11:17:20;;;;;;;8.37;7.60;;;28.30;92.10;;;;;;5023882;28;20471;-79
2022/08/28 11:20:10;;;;;;;8.57;7.67;;;27.40;91.30;;;;;;5027633;28;20448;-78
2022/08/28 11:23:00;;;;;;;9.27;8.30;;;27.30;91.20;;;;;;5029365;28;20850;-78
2022/08/28 11:26:00;;;;;;;10.00;9.00;;;27.00;92.60;;;;;;5020985;28;20451;-79
2022/08/28 11:28:35;;;;;;;10.43;9.30;;;26.80;94.10;;;;;;5043653;28;20825;-79
2022/08/28 11:31:03;;;;;;;8.83;8.10;;;27.10;93.20;;;;;;5029429;28;21132;-78
2022/08/28 11:33:39;;;;;;;10.13;9.13;;;27.30;93.30;;;;;;5022200;28;20811;-79
2022/08/28 11:36:32;;;;;;;8.93;8.13;;;27.00;93.10;;;;;;5021754;28;20437;-79
2022/08/28 11:39:13;;;;;;;9.27;8.10;;;26.40;93.70;;;;;;5023593;28;20511;-78
2022/08/28 11:42:12;;;;;;;8.57;7.87;;;26.40;94.60;;;;;;5026210;28;20439;-78
2022/08/28 11:44:41;;;;;;;8.60;7.90;;;26.60;94.10;;;;;;5028954;28;20437;-78
2022/08/28 11:47:36;;;;;;;8.73;8.00;;;27.20;93.10;;;;;;5026835;28;20860;-79
2022/08/28 11:50:23;;;;;;;9.67;8.50;;;26.70;93.40;;;;;;5025647;28;21000;-80
2022/08/28 11:53:22;;;;;;;8.30;7.50;;;26.50;93.90;;;;;;5027629;28;20461;-79
2022/08/28 11:55:56;;;;;;;8.60;7.63;;;26.70;92.90;;;;;;5027211;28;20516;-80
2022/08/28 11:58:37;;;;;;;7.70;6.90;;;26.60;92.30;;;;;;5022561;28;20429;-79
2022/08/28 12:01:04;;;;;;;8.00;7.40;;;26.50;92.30;;;;;;5028806;28;20464;-79
2022/08/28 12:03:51;;;;;;;9.23;8.43;;;27.20;92.70;;;;;;5025411;28;20444;-79
2022/08/28 12:06:55;;;;;;;8.63;7.87;;;26.50;92.50;;;;;;5024172;28;21031;-79
2022/08/28 12:09:44;;;;;;;8.23;7.53;;;27.00;92.30;;;;;;5022284;28;20463;-79
2022/08/28 12:12:22;;;;;;;9.33;7.47;;;27.00;91.50;;;;;;5025199;28;20491;-79
2022/08/28 12:14:53;;;;;;;8.70;8.00;;;27.60;91.30;;;;;;5028769;28;20988;-80
2022/08/28 12:17:22;;;;;;;8.90;8.20;;;27.20;91.00;;;;;;5026499;28;20463;-79
2022/08/28 12:20:10;;;;;;;8.00;7.30;;;26.90;91.40;;;;;;5028637;28;20433;-78
2022/08/28 12:22:58;;;;;;;7.60;7.00;;;26.90;91.20;;;;;;5028261;28;20452;-79
2022/08/28 12:25:42;;;;;;;7.63;6.90;;;27.10;90.70;;;;;;5025928;28;20427;-79
2022/08/28 12:28:44;;;;;;;9.17;8.37;;;27.20;90.90;;;;;;5027265;28;20471;-79
2022/08/28 12:34:42;;;;;;;8.40;7.60;;;27.20;91.60;;;;;;5021327;28;20499;-79
2022/08/28 12:37:19;;;;;;;8.13;7.43;;;27.30;91.00;;;;;;5025141;28;20943;-79
2022/08/28 12:39:45;;;;;;;8.20;7.60;;;28.00;91.20;;;;;;5030051;28;20440;-79
2022/08/28 12:42:17;;;;;;;7.60;7.00;;;27.20;90.80;;;;;;5032311;28;20510;-79
2022/08/28 12:44:45;;;;;;;8.07;7.37;;;27.50;91.20;;;;;;5032479;28;20228;-79
2022/08/28 12:47:15;;;;;;;7.67;6.97;;;26.80;90.60;;;;;;5028359;28;20442;-79
2022/08/28 12:49:40;;;;;;;8.20;7.60;;;26.30;90.90;;;;;;5030987;28;20512;-79
2022/08/28 12:52:12;;;;;;;8.60;7.90;;;27.20;92.50;;;;;;5031192;28;20971;-79
2022/08/28 12:54:38;;;;;;;8.53;7.70;;;26.30;93.20;;;;;;5024062;28;20199;-79
2022/08/28 12:57:11;;;;;;;8.17;7.53;;;27.10;93.70;;;;;;5031374;28;20458;-78
2022/08/28 12:59:41;;;;;;;9.83;9.03;;;26.70;93.10;;;;;;5031800;28;20438;-79
2022/08/28 13:02:19;;;;;;;8.10;7.50;;;27.80;93.50;;;;;;5026904;28;21002;-79
2022/08/28 13:04:51;;;;;;;8.80;8.20;;;26.20;93.20;;;;;;5033187;28;20440;-79